sensor_id;sensor_type;location;lat;lon;timestamp;temperature;humidity
43999;DHT22;51319;52.162;5.302;2022-08-01T00:11:47;19.70;92.70
43999;DHT22;51319;52.162;5.302;2022-08-01T00:14:26;19.60;92.60
43999;DHT22;51319;52.162;5.302;2022-08-01T00:16:58;19.70;92.80
43999;DHT22;51319;52.162;5.302;2022-08-01T00:19:32;19.60;92.90
43999;DHT22;51319;52.162;5.302;2022-08-01T00:21:59;19.60;93.00
43999;DHT22;51319;52.162;5.302;2022-08-01T00:24:25;19.60;93.10
43999;DHT22;51319;52.162;5.302;2022-08-01T00:30:53;19.60;93.20
43999;DHT22;51319;52.162;5.302;2022-08-01T00:33:19;19.50;93.10
43999;DHT22;51319;52.162;5.302;2022-08-01T00:35:46;19.50;93.20
43999;DHT22;51319;52.162;5.302;2022-08-01T00:38:47;19.50;93.30
43999;DHT22;51319;52.162;5.302;2022-08-01T00:45:02;19.50;93.40
43999;DHT22;51319;52.162;5.302;2022-08-01T00:47:31;19.50;93.40
43999;DHT22;51319;52.162;5.302;2022-08-01T00:49:58;19.50;93.40
43999;DHT22;51319;52.162;5.302;2022-08-01T00:52:24;19.50;93.40
43999;DHT22;51319;52.162;5.302;2022-08-01T01:07:17;19.50;93.30
43999;DHT22;51319;52.162;5.302;2022-08-01T01:10:25;19.50;93.30
43999;DHT22;51319;52.162;5.302;2022-08-01T01:14:10;19.50;93.40
43999;DHT22;51319;52.162;5.302;2022-08-01T01:16:41;19.50;93.40
43999;DHT22;51319;52.162;5.302;2022-08-01T01:19:45;19.50;93.50
43999;DHT22;51319;52.162;5.302;2022-08-01T01:30:23;19.40;93.70
43999;DHT22;51319;52.162;5.302;2022-08-01T01:32:51;19.40;93.80
43999;DHT22;51319;52.162;5.302;2022-08-01T01:35:24;19.40;93.80
43999;DHT22;51319;52.162;5.302;2022-08-01T01:38:10;19.40;93.90
43999;DHT22;51319;52.162;5.302;2022-08-01T01:40:37;19.40;94.00
43999;DHT22;51319;52.162;5.302;2022-08-01T01:43:04;19.40;94.00
43999;DHT22;51319;52.162;5.302;2022-08-01T01:45:35;19.40;94.00
43999;DHT22;51319;52.162;5.302;2022-08-01T01:48:02;19.40;94.00
43999;DHT22;51319;52.162;5.302;2022-08-01T01:50:29;19.40;94.00
43999;DHT22;51319;52.162;5.302;2022-08-01T01:52:57;19.40;94.00
43999;DHT22;51319;52.162;5.302;2022-08-01T01:55:25;19.40;94.00
43999;DHT22;51319;52.162;5.302;2022-08-01T01:57:53;19.40;94.00
43999;DHT22;51319;52.162;5.302;2022-08-01T02:00:22;19.40;94.00
43999;DHT22;51319;52.162;5.302;2022-08-01T02:02:49;19.40;94.10
43999;DHT22;51319;52.162;5.302;2022-08-01T02:05:17;19.40;94.40
43999;DHT22;51319;52.162;5.302;2022-08-01T02:07:44;19.40;94.10
43999;DHT22;51319;52.162;5.302;2022-08-01T02:10:15;19.40;94.10
43999;DHT22;51319;52.162;5.302;2022-08-01T02:12:45;19.40;94.10
43999;DHT22;51319;52.162;5.302;2022-08-01T02:15:14;19.40;94.10
43999;DHT22;51319;52.162;5.302;2022-08-01T02:17:44;19.40;94.10
43999;DHT22;51319;52.162;5.302;2022-08-01T02:20:21;19.40;94.10
43999;DHT22;51319;52.162;5.302;2022-08-01T02:22:53;19.30;94.10
43999;DHT22;51319;52.162;5.302;2022-08-01T02:28:59;19.30;94.20
43999;DHT22;51319;52.162;5.302;2022-08-01T02:31:26;19.30;94.20
43999;DHT22;51319;52.162;5.302;2022-08-01T02:34:17;19.30;94.20
43999;DHT22;51319;52.162;5.302;2022-08-01T02:36:47;19.30;94.20
43999;DHT22;51319;52.162;5.302;2022-08-01T02:39:16;19.30;94.20
43999;DHT22;51319;52.162;5.302;2022-08-01T02:41:50;19.30;94.20
43999;DHT22;51319;52.162;5.302;2022-08-01T02:44:26;19.30;94.60
43999;DHT22;51319;52.162;5.302;2022-08-01T02:46:59;19.30;94.40
43999;DHT22;51319;52.162;5.302;2022-08-01T02:49:34;19.20;94.40
43999;DHT22;51319;52.162;5.302;2022-08-01T02:52:07;19.20;94.50
43999;DHT22;51319;52.162;5.302;2022-08-01T02:54:36;19.30;94.60
43999;DHT22;51319;52.162;5.302;2022-08-01T02:57:25;19.30;94.60
43999;DHT22;51319;52.162;5.302;2022-08-01T03:00:16;19.20;94.70
43999;DHT22;51319;52.162;5.302;2022-08-01T03:03:09;19.20;94.90
43999;DHT22;51319;52.162;5.302;2022-08-01T03:05:38;19.20;94.70
43999;DHT22;51319;52.162;5.302;2022-08-01T03:08:09;19.20;94.70
43999;DHT22;51319;52.162;5.302;2022-08-01T03:10:42;19.20;94.80
43999;DHT22;51319;52.162;5.302;2022-08-01T03:13:11;19.10;94.80
43999;DHT22;51319;52.162;5.302;2022-08-01T03:15:40;19.10;94.90
43999;DHT22;51319;52.162;5.302;2022-08-01T03:18:09;19.10;94.90
43999;DHT22;51319;52.162;5.302;2022-08-01T03:20:36;19.10;95.00
43999;DHT22;51319;52.162;5.302;2022-08-01T03:23:08;19.10;94.90
43999;DHT22;51319;52.162;5.302;2022-08-01T03:25:36;19.10;94.90
43999;DHT22;51319;52.162;5.302;2022-08-01T03:28:05;19.00;94.90
43999;DHT22;51319;52.162;5.302;2022-08-01T03:30:33;19.00;94.90
43999;DHT22;51319;52.162;5.302;2022-08-01T03:33:04;19.00;94.90
43999;DHT22;51319;52.162;5.302;2022-08-01T03:35:36;19.00;95.00
43999;DHT22;51319;52.162;5.302;2022-08-01T03:38:05;18.90;95.00
43999;DHT22;51319;52.162;5.302;2022-08-01T03:43:57;18.80;95.20
43999;DHT22;51319;52.162;5.302;2022-08-01T03:46:56;18.80;95.20
43999;DHT22;51319;52.162;5.302;2022-08-01T03:49:33;18.70;95.20
43999;DHT22;51319;52.162;5.302;2022-08-01T03:52:03;18.70;95.30
43999;DHT22;51319;52.162;5.302;2022-08-01T03:54:37;18.70;95.40
43999;DHT22;51319;52.162;5.302;2022-08-01T04:01:34;18.70;95.40
43999;DHT22;51319;52.162;5.302;2022-08-01T04:04:01;18.60;95.30
43999;DHT22;51319;52.162;5.302;2022-08-01T04:06:29;18.60;95.40
43999;DHT22;51319;52.162;5.302;2022-08-01T04:09:13;18.60;95.60
43999;DHT22;51319;52.162;5.302;2022-08-01T04:19:44;18.80;95.70
43999;DHT22;51319;52.162;5.302;2022-08-01T04:29:53;18.90;95.40
43999;DHT22;51319;52.162;5.302;2022-08-01T04:32:22;19.00;95.10
43999;DHT22;51319;52.162;5.302;2022-08-01T04:54:51;19.00;94.80
43999;DHT22;51319;52.162;5.302;2022-08-01T04:57:17;19.00;94.60
43999;DHT22;51319;52.162;5.302;2022-08-01T04:59:44;18.90;94.40
43999;DHT22;51319;52.162;5.302;2022-08-01T05:20:40;18.80;94.00
43999;DHT22;51319;52.162;5.302;2022-08-01T05:23:07;18.70;94.10
43999;DHT22;51319;52.162;5.302;2022-08-01T05:25:43;18.70;94.30
43999;DHT22;51319;52.162;5.302;2022-08-01T05:28:24;18.70;94.50
43999;DHT22;51319;52.162;5.302;2022-08-01T05:30:51;18.60;94.60
43999;DHT22;51319;52.162;5.302;2022-08-01T05:33:20;18.60;94.80
43999;DHT22;51319;52.162;5.302;2022-08-01T05:35:47;18.60;94.80
43999;DHT22;51319;52.162;5.302;2022-08-01T05:38:16;18.60;94.80
43999;DHT22;51319;52.162;5.302;2022-08-01T05:40:42;18.60;94.90
43999;DHT22;51319;52.162;5.302;2022-08-01T05:43:09;18.70;94.90
43999;DHT22;51319;52.162;5.302;2022-08-01T05:45:35;18.60;94.90
43999;DHT22;51319;52.162;5.302;2022-08-01T05:48:02;18.60;94.80
43999;DHT22;51319;52.162;5.302;2022-08-01T05:50:32;18.70;94.80
43999;DHT22;51319;52.162;5.302;2022-08-01T05:52:58;18.70;95.00
43999;DHT22;51319;52.162;5.302;2022-08-01T05:55:24;18.70;95.10
43999;DHT22;51319;52.162;5.302;2022-08-01T05:57:51;18.60;95.10
43999;DHT22;51319;52.162;5.302;2022-08-01T06:00:17;18.60;95.10
43999;DHT22;51319;52.162;5.302;2022-08-01T06:02:43;18.60;95.10
43999;DHT22;51319;52.162;5.302;2022-08-01T06:05:13;18.60;95.10
43999;DHT22;51319;52.162;5.302;2022-08-01T06:07:39;18.60;95.20
43999;DHT22;51319;52.162;5.302;2022-08-01T06:13:51;18.60;95.40
43999;DHT22;51319;52.162;5.302;2022-08-01T06:16:17;18.50;95.40
43999;DHT22;51319;52.162;5.302;2022-08-01T06:18:44;18.60;95.60
43999;DHT22;51319;52.162;5.302;2022-08-01T06:21:10;18.50;95.70
43999;DHT22;51319;52.162;5.302;2022-08-01T06:23:37;18.50;95.70
43999;DHT22;51319;52.162;5.302;2022-08-01T06:26:03;18.50;95.80
43999;DHT22;51319;52.162;5.302;2022-08-01T06:28:30;18.60;96.00
43999;DHT22;51319;52.162;5.302;2022-08-01T06:31:09;18.60;96.00
43999;DHT22;51319;52.162;5.302;2022-08-01T06:33:44;18.70;96.10
43999;DHT22;51319;52.162;5.302;2022-08-01T06:36:10;18.80;96.20
43999;DHT22;51319;52.162;5.302;2022-08-01T06:38:37;18.80;96.10
43999;DHT22;51319;52.162;5.302;2022-08-01T06:41:03;18.90;96.10
43999;DHT22;51319;52.162;5.302;2022-08-01T06:43:29;18.90;96.00
43999;DHT22;51319;52.162;5.302;2022-08-01T06:45:57;19.00;95.90
43999;DHT22;51319;52.162;5.302;2022-08-01T06:48:36;19.00;95.70
43999;DHT22;51319;52.162;5.302;2022-08-01T06:51:05;19.00;95.60
43999;DHT22;51319;52.162;5.302;2022-08-01T06:53:36;19.00;95.50
43999;DHT22;51319;52.162;5.302;2022-08-01T06:56:03;18.90;95.40
43999;DHT22;51319;52.162;5.302;2022-08-01T06:58:32;19.00;95.30
43999;DHT22;51319;52.162;5.302;2022-08-01T07:09:04;19.00;95.30
43999;DHT22;51319;52.162;5.302;2022-08-01T07:15:23;19.00;95.20
43999;DHT22;51319;52.162;5.302;2022-08-01T07:22:18;18.70;94.70
43999;DHT22;51319;52.162;5.302;2022-08-01T07:29:02;18.50;94.90
43999;DHT22;51319;52.162;5.302;2022-08-01T07:31:38;18.50;95.00
43999;DHT22;51319;52.162;5.302;2022-08-01T07:34:05;18.60;95.00
43999;DHT22;51319;52.162;5.302;2022-08-01T07:36:31;18.60;94.90
43999;DHT22;51319;52.162;5.302;2022-08-01T07:38:57;18.60;94.80
43999;DHT22;51319;52.162;5.302;2022-08-01T07:41:24;18.70;94.80
43999;DHT22;51319;52.162;5.302;2022-08-01T07:44:10;18.80;94.70
43999;DHT22;51319;52.162;5.302;2022-08-01T07:46:37;18.90;94.60
43999;DHT22;51319;52.162;5.302;2022-08-01T07:49:03;19.20;94.50
43999;DHT22;51319;52.162;5.302;2022-08-01T07:51:29;19.40;94.20
43999;DHT22;51319;52.162;5.302;2022-08-01T07:54:07;19.80;93.60
43999;DHT22;51319;52.162;5.302;2022-08-01T07:56:34;20.10;92.80
43999;DHT22;51319;52.162;5.302;2022-08-01T07:59:06;20.20;92.30
43999;DHT22;51319;52.162;5.302;2022-08-01T08:01:35;20.50;92.10
43999;DHT22;51319;52.162;5.302;2022-08-01T08:04:02;20.90;91.70
43999;DHT22;51319;52.162;5.302;2022-08-01T08:06:28;21.50;91.10
43999;DHT22;51319;52.162;5.302;2022-08-01T08:08:54;22.00;88.90
43999;DHT22;51319;52.162;5.302;2022-08-01T08:11:21;22.00;87.40
43999;DHT22;51319;52.162;5.302;2022-08-01T08:13:47;22.30;87.00
43999;DHT22;51319;52.162;5.302;2022-08-01T08:16:13;23.00;86.00
43999;DHT22;51319;52.162;5.302;2022-08-01T08:26:39;24.00;76.00
43999;DHT22;51319;52.162;5.302;2022-08-01T08:41:25;25.00;74.80
43999;DHT22;51319;52.162;5.302;2022-08-01T08:44:06;25.70;71.40
43999;DHT22;51319;52.162;5.302;2022-08-01T08:47:08;25.70;68.50
43999;DHT22;51319;52.162;5.302;2022-08-01T09:02:49;27.30;64.60
43999;DHT22;51319;52.162;5.302;2022-08-01T10:03:42;28.60;51.50
43999;DHT22;51319;52.162;5.302;2022-08-01T10:06:21;28.40;52.20
43999;DHT22;51319;52.162;5.302;2022-08-01T10:08:50;28.60;51.70
43999;DHT22;51319;52.162;5.302;2022-08-01T10:11:17;29.30;50.60
43999;DHT22;51319;52.162;5.302;2022-08-01T10:13:43;30.00;50.20
43999;DHT22;51319;52.162;5.302;2022-08-01T10:16:12;30.70;48.40
43999;DHT22;51319;52.162;5.302;2022-08-01T10:18:41;31.50;46.90
43999;DHT22;51319;52.162;5.302;2022-08-01T10:21:10;32.60;44.90
43999;DHT22;51319;52.162;5.302;2022-08-01T10:23:38;32.10;45.30
43999;DHT22;51319;52.162;5.302;2022-08-01T10:26:07;31.60;45.00
43999;DHT22;51319;52.162;5.302;2022-08-01T10:28:35;31.00;46.20
43999;DHT22;51319;52.162;5.302;2022-08-01T10:31:06;30.80;45.80
43999;DHT22;51319;52.162;5.302;2022-08-01T10:33:40;30.40;46.30
43999;DHT22;51319;52.162;5.302;2022-08-01T10:36:21;30.00;46.70
43999;DHT22;51319;52.162;5.302;2022-08-01T10:38:52;29.80;48.20
43999;DHT22;51319;52.162;5.302;2022-08-01T10:41:21;29.70;46.50
43999;DHT22;51319;52.162;5.302;2022-08-01T10:43:47;29.70;47.40
43999;DHT22;51319;52.162;5.302;2022-08-01T10:46:14;29.80;47.60
43999;DHT22;51319;52.162;5.302;2022-08-01T10:49:16;29.80;46.80
43999;DHT22;51319;52.162;5.302;2022-08-01T10:51:41;29.70;46.00
43999;DHT22;51319;52.162;5.302;2022-08-01T10:54:24;29.50;47.30
43999;DHT22;51319;52.162;5.302;2022-08-01T10:56:51;29.40;46.90
43999;DHT22;51319;52.162;5.302;2022-08-01T10:59:27;29.50;46.90
43999;DHT22;51319;52.162;5.302;2022-08-01T11:02:29;29.50;46.70
43999;DHT22;51319;52.162;5.302;2022-08-01T11:51:33;31.30;40.30
43999;DHT22;51319;52.162;5.302;2022-08-01T11:54:02;31.30;40.00
43999;DHT22;51319;52.162;5.302;2022-08-01T11:56:28;31.30;39.40
43999;DHT22;51319;52.162;5.302;2022-08-01T11:58:59;31.30;38.80
43999;DHT22;51319;52.162;5.302;2022-08-01T12:01:26;31.40;36.80
43999;DHT22;51319;52.162;5.302;2022-08-01T12:03:55;31.50;37.40
43999;DHT22;51319;52.162;5.302;2022-08-01T12:06:29;31.70;37.40
43999;DHT22;51319;52.162;5.302;2022-08-01T12:09:21;31.80;37.70
43999;DHT22;51319;52.162;5.302;2022-08-01T12:11:47;32.40;38.20
43999;DHT22;51319;52.162;5.302;2022-08-01T12:14:20;33.20;36.10
43999;DHT22;51319;52.162;5.302;2022-08-01T12:16:54;33.40;35.30
43999;DHT22;51319;52.162;5.302;2022-08-01T12:19:21;34.00;34.50
43999;DHT22;51319;52.162;5.302;2022-08-01T12:22:11;34.50;33.70
43999;DHT22;51319;52.162;5.302;2022-08-01T12:24:41;35.80;33.40
43999;DHT22;51319;52.162;5.302;2022-08-01T12:27:08;36.60;32.40
43999;DHT22;51319;52.162;5.302;2022-08-01T12:29:40;37.10;30.40
43999;DHT22;51319;52.162;5.302;2022-08-01T12:36:07;37.60;31.20
43999;DHT22;51319;52.162;5.302;2022-08-01T12:42:39;37.30;31.70
43999;DHT22;51319;52.162;5.302;2022-08-01T12:45:12;37.20;33.20
43999;DHT22;51319;52.162;5.302;2022-08-01T13:12:10;36.70;32.60
43999;DHT22;51319;52.162;5.302;2022-08-01T13:14:37;36.50;30.80
43999;DHT22;51319;52.162;5.302;2022-08-01T13:17:07;36.30;29.90
43999;DHT22;51319;52.162;5.302;2022-08-01T13:19:44;36.30;30.20
43999;DHT22;51319;52.162;5.302;2022-08-01T13:22:11;36.50;29.70
43999;DHT22;51319;52.162;5.302;2022-08-01T13:24:37;36.60;29.70
43999;DHT22;51319;52.162;5.302;2022-08-01T13:27:04;36.40;29.60
43999;DHT22;51319;52.162;5.302;2022-08-01T13:29:39;36.20;29.50
43999;DHT22;51319;52.162;5.302;2022-08-01T13:32:16;36.00;30.40
43999;DHT22;51319;52.162;5.302;2022-08-01T13:35:06;35.70;29.60
43999;DHT22;51319;52.162;5.302;2022-08-01T13:37:34;35.60;30.00
43999;DHT22;51319;52.162;5.302;2022-08-01T13:40:05;35.50;29.50
43999;DHT22;51319;52.162;5.302;2022-08-01T13:42:31;35.50;28.80
43999;DHT22;51319;52.162;5.302;2022-08-01T13:44:58;35.40;28.90
43999;DHT22;51319;52.162;5.302;2022-08-01T13:47:24;35.30;29.30
43999;DHT22;51319;52.162;5.302;2022-08-01T13:49:57;35.30;29.20
43999;DHT22;51319;52.162;5.302;2022-08-01T13:52:26;35.00;29.80
43999;DHT22;51319;52.162;5.302;2022-08-01T13:54:52;34.80;29.60
43999;DHT22;51319;52.162;5.302;2022-08-01T13:57:18;34.50;29.80
43999;DHT22;51319;52.162;5.302;2022-08-01T13:59:45;34.30;30.20
43999;DHT22;51319;52.162;5.302;2022-08-01T14:02:11;34.10;30.30
43999;DHT22;51319;52.162;5.302;2022-08-01T14:04:37;33.80;31.10
43999;DHT22;51319;52.162;5.302;2022-08-01T14:07:06;33.50;30.30
43999;DHT22;51319;52.162;5.302;2022-08-01T14:16:53;31.60;31.40
43999;DHT22;51319;52.162;5.302;2022-08-01T14:27:44;29.70;33.50
43999;DHT22;51319;52.162;5.302;2022-08-01T14:38:53;28.30;37.80
43999;DHT22;51319;52.162;5.302;2022-08-01T14:41:26;28.10;37.80
43999;DHT22;51319;52.162;5.302;2022-08-01T14:47:30;27.80;37.50
43999;DHT22;51319;52.162;5.302;2022-08-01T14:49:56;27.70;37.00
43999;DHT22;51319;52.162;5.302;2022-08-01T14:52:23;27.60;37.50
43999;DHT22;51319;52.162;5.302;2022-08-01T14:54:49;27.50;36.30
43999;DHT22;51319;52.162;5.302;2022-08-01T14:57:15;27.40;37.00
43999;DHT22;51319;52.162;5.302;2022-08-01T14:59:53;27.20;38.20
43999;DHT22;51319;52.162;5.302;2022-08-01T15:10:23;26.60;39.70
43999;DHT22;51319;52.162;5.302;2022-08-01T15:12:49;26.40;39.50
43999;DHT22;51319;52.162;5.302;2022-08-01T15:15:31;26.40;39.20
43999;DHT22;51319;52.162;5.302;2022-08-01T15:17:58;26.40;38.50
43999;DHT22;51319;52.162;5.302;2022-08-01T15:46:30;25.60;38.20
43999;DHT22;51319;52.162;5.302;2022-08-01T15:53:04;25.30;39.50
43999;DHT22;51319;52.162;5.302;2022-08-01T15:55:34;25.10;40.00
43999;DHT22;51319;52.162;5.302;2022-08-01T15:58:03;25.10;41.20
43999;DHT22;51319;52.162;5.302;2022-08-01T16:08:39;25.00;41.60
43999;DHT22;51319;52.162;5.302;2022-08-01T16:11:05;24.90;41.70
43999;DHT22;51319;52.162;5.302;2022-08-01T16:13:32;24.90;41.70
43999;DHT22;51319;52.162;5.302;2022-08-01T16:15:58;24.80;42.30
43999;DHT22;51319;52.162;5.302;2022-08-01T16:18:27;24.80;42.00
43999;DHT22;51319;52.162;5.302;2022-08-01T16:21:11;24.70;41.70
43999;DHT22;51319;52.162;5.302;2022-08-01T16:23:58;24.70;42.00
43999;DHT22;51319;52.162;5.302;2022-08-01T16:26:37;24.60;43.30
43999;DHT22;51319;52.162;5.302;2022-08-01T16:29:33;24.60;43.20
43999;DHT22;51319;52.162;5.302;2022-08-01T16:32:00;24.60;42.70
43999;DHT22;51319;52.162;5.302;2022-08-01T16:34:44;24.50;42.20
43999;DHT22;51319;52.162;5.302;2022-08-01T16:37:31;24.40;43.20
43999;DHT22;51319;52.162;5.302;2022-08-01T16:41:19;24.40;43.40
43999;DHT22;51319;52.162;5.302;2022-08-01T16:55:38;24.00;45.40
43999;DHT22;51319;52.162;5.302;2022-08-01T16:58:18;24.00;45.80
43999;DHT22;51319;52.162;5.302;2022-08-01T17:00:44;23.80;45.90
43999;DHT22;51319;52.162;5.302;2022-08-01T17:03:22;23.80;46.40
43999;DHT22;51319;52.162;5.302;2022-08-01T17:06:14;23.80;46.80
43999;DHT22;51319;52.162;5.302;2022-08-01T17:08:42;23.70;46.40
43999;DHT22;51319;52.162;5.302;2022-08-01T17:14:57;23.60;45.70
43999;DHT22;51319;52.162;5.302;2022-08-01T17:17:29;23.50;46.30
43999;DHT22;51319;52.162;5.302;2022-08-01T17:20:00;23.50;47.00
43999;DHT22;51319;52.162;5.302;2022-08-01T17:22:27;23.40;47.70
43999;DHT22;51319;52.162;5.302;2022-08-01T17:24:53;23.40;47.50
43999;DHT22;51319;52.162;5.302;2022-08-01T17:31:32;23.20;47.00
43999;DHT22;51319;52.162;5.302;2022-08-01T17:34:33;23.10;47.50
43999;DHT22;51319;52.162;5.302;2022-08-01T17:37:00;23.10;48.00
43999;DHT22;51319;52.162;5.302;2022-08-01T17:39:27;23.00;48.80
43999;DHT22;51319;52.162;5.302;2022-08-01T17:49:23;22.80;50.10
43999;DHT22;51319;52.162;5.302;2022-08-01T17:52:11;22.80;50.30
43999;DHT22;51319;52.162;5.302;2022-08-01T17:54:38;22.60;50.50
43999;DHT22;51319;52.162;5.302;2022-08-01T18:05:11;22.40;52.20
43999;DHT22;51319;52.162;5.302;2022-08-01T18:07:41;22.30;52.30
43999;DHT22;51319;52.162;5.302;2022-08-01T18:10:29;22.20;52.60
43999;DHT22;51319;52.162;5.302;2022-08-01T18:12:56;22.10;52.90
43999;DHT22;51319;52.162;5.302;2022-08-01T18:15:45;22.10;53.20
43999;DHT22;51319;52.162;5.302;2022-08-01T18:18:11;22.00;53.40
43999;DHT22;51319;52.162;5.302;2022-08-01T18:20:42;22.00;52.70
43999;DHT22;51319;52.162;5.302;2022-08-01T18:23:11;21.90;53.60
43999;DHT22;51319;52.162;5.302;2022-08-01T18:25:38;21.80;53.40
43999;DHT22;51319;52.162;5.302;2022-08-01T18:28:15;21.70;53.40
43999;DHT22;51319;52.162;5.302;2022-08-01T18:30:58;21.60;54.10
43999;DHT22;51319;52.162;5.302;2022-08-01T18:33:24;21.50;54.60
43999;DHT22;51319;52.162;5.302;2022-08-01T18:35:51;21.50;55.10
43999;DHT22;51319;52.162;5.302;2022-08-01T18:38:19;21.40;55.10
43999;DHT22;51319;52.162;5.302;2022-08-01T18:40:50;21.30;55.50
43999;DHT22;51319;52.162;5.302;2022-08-01T18:43:16;21.20;55.80
43999;DHT22;51319;52.162;5.302;2022-08-01T18:45:43;21.10;56.20
43999;DHT22;51319;52.162;5.302;2022-08-01T18:48:10;21.10;56.30
43999;DHT22;51319;52.162;5.302;2022-08-01T18:51:01;21.00;56.30
43999;DHT22;51319;52.162;5.302;2022-08-01T18:53:28;21.00;56.10
43999;DHT22;51319;52.162;5.302;2022-08-01T18:56:17;20.90;56.50
43999;DHT22;51319;52.162;5.302;2022-08-01T19:27:57;19.80;59.60
43999;DHT22;51319;52.162;5.302;2022-08-01T19:35:51;19.50;61.20
43999;DHT22;51319;52.162;5.302;2022-08-01T19:38:45;19.30;61.40
43999;DHT22;51319;52.162;5.302;2022-08-01T19:48:59;18.90;63.40
43999;DHT22;51319;52.162;5.302;2022-08-01T19:59:26;18.50;65.20
43999;DHT22;51319;52.162;5.302;2022-08-01T20:01:55;18.40;65.60
43999;DHT22;51319;52.162;5.302;2022-08-01T20:04:24;18.30;66.70
43999;DHT22;51319;52.162;5.302;2022-08-01T20:06:51;18.30;67.60
43999;DHT22;51319;52.162;5.302;2022-08-01T20:09:17;18.20;68.30
43999;DHT22;51319;52.162;5.302;2022-08-01T20:12:15;18.10;68.90
43999;DHT22;51319;52.162;5.302;2022-08-01T20:15:50;18.00;70.10
43999;DHT22;51319;52.162;5.302;2022-08-01T20:18:16;17.90;70.40
43999;DHT22;51319;52.162;5.302;2022-08-01T20:20:45;17.90;70.80
43999;DHT22;51319;52.162;5.302;2022-08-01T20:26:59;17.70;71.70
43999;DHT22;51319;52.162;5.302;2022-08-01T20:30:14;17.60;71.80
43999;DHT22;51319;52.162;5.302;2022-08-01T20:33:09;17.50;72.20
43999;DHT22;51319;52.162;5.302;2022-08-01T20:38:58;17.30;73.40
43999;DHT22;51319;52.162;5.302;2022-08-01T20:41:26;17.20;73.70
43999;DHT22;51319;52.162;5.302;2022-08-01T20:43:57;17.10;73.80
43999;DHT22;51319;52.162;5.302;2022-08-01T20:46:37;17.10;74.20
43999;DHT22;51319;52.162;5.302;2022-08-01T20:49:04;17.00;74.50
43999;DHT22;51319;52.162;5.302;2022-08-01T20:51:33;16.90;74.80
43999;DHT22;51319;52.162;5.302;2022-08-01T20:57:05;16.80;75.70
43999;DHT22;51319;52.162;5.302;2022-08-01T20:59:58;16.70;76.00
43999;DHT22;51319;52.162;5.302;2022-08-01T21:02:44;16.70;76.60
43999;DHT22;51319;52.162;5.302;2022-08-01T21:05:29;16.60;76.20
43999;DHT22;51319;52.162;5.302;2022-08-01T21:08:12;16.50;76.70
43999;DHT22;51319;52.162;5.302;2022-08-01T21:10:40;16.50;77.10
43999;DHT22;51319;52.162;5.302;2022-08-01T21:13:13;16.40;77.00
43999;DHT22;51319;52.162;5.302;2022-08-01T21:15:58;16.30;77.40
43999;DHT22;51319;52.162;5.302;2022-08-01T21:18:55;16.20;77.70
43999;DHT22;51319;52.162;5.302;2022-08-01T21:22:02;16.20;78.00
43999;DHT22;51319;52.162;5.302;2022-08-01T21:24:53;16.10;78.10
43999;DHT22;51319;52.162;5.302;2022-08-01T21:27:25;16.00;78.60
43999;DHT22;51319;52.162;5.302;2022-08-01T21:30:04;16.00;78.70
43999;DHT22;51319;52.162;5.302;2022-08-01T21:32:33;15.90;78.90
43999;DHT22;51319;52.162;5.302;2022-08-01T21:35:01;15.80;79.20
43999;DHT22;51319;52.162;5.302;2022-08-01T21:37:29;15.80;79.40
43999;DHT22;51319;52.162;5.302;2022-08-01T21:39:57;15.80;79.50
43999;DHT22;51319;52.162;5.302;2022-08-01T21:42:28;15.70;79.70
43999;DHT22;51319;52.162;5.302;2022-08-01T21:44:57;15.70;79.60
43999;DHT22;51319;52.162;5.302;2022-08-01T21:47:27;15.60;79.30
43999;DHT22;51319;52.162;5.302;2022-08-01T21:49:54;15.60;80.10
43999;DHT22;51319;52.162;5.302;2022-08-01T21:52:25;15.60;80.60
43999;DHT22;51319;52.162;5.302;2022-08-01T21:55:09;15.60;80.60
43999;DHT22;51319;52.162;5.302;2022-08-01T22:00:26;15.50;80.60
43999;DHT22;51319;52.162;5.302;2022-08-01T22:05:39;15.40;81.30
43999;DHT22;51319;52.162;5.302;2022-08-01T22:08:34;15.30;81.50
43999;DHT22;51319;52.162;5.302;2022-08-01T22:11:13;15.30;81.70
43999;DHT22;51319;52.162;5.302;2022-08-01T22:13:39;15.20;81.70
43999;DHT22;51319;52.162;5.302;2022-08-01T22:16:11;15.20;81.90
43999;DHT22;51319;52.162;5.302;2022-08-01T22:18:40;15.10;82.20
43999;DHT22;51319;52.162;5.302;2022-08-01T22:21:07;15.10;82.30
43999;DHT22;51319;52.162;5.302;2022-08-01T22:23:38;15.10;82.50
43999;DHT22;51319;52.162;5.302;2022-08-01T22:26:28;15.10;82.80
43999;DHT22;51319;52.162;5.302;2022-08-01T22:28:55;15.10;82.90
43999;DHT22;51319;52.162;5.302;2022-08-01T22:31:21;15.00;83.00
43999;DHT22;51319;52.162;5.302;2022-08-01T22:33:49;15.00;83.10
43999;DHT22;51319;52.162;5.302;2022-08-01T22:36:17;15.00;83.20
43999;DHT22;51319;52.162;5.302;2022-08-01T22:38:45;15.00;83.40
43999;DHT22;51319;52.162;5.302;2022-08-01T22:41:17;15.00;83.60
43999;DHT22;51319;52.162;5.302;2022-08-01T22:44:07;15.00;83.80
43999;DHT22;51319;52.162;5.302;2022-08-01T22:47:00;15.00;84.20
43999;DHT22;51319;52.162;5.302;2022-08-01T22:50:03;15.00;84.30
43999;DHT22;51319;52.162;5.302;2022-08-01T22:52:29;15.00;84.10
43999;DHT22;51319;52.162;5.302;2022-08-01T22:55:08;15.00;83.90
43999;DHT22;51319;52.162;5.302;2022-08-01T23:00:09;15.00;84.00
43999;DHT22;51319;52.162;5.302;2022-08-01T23:02:39;15.00;84.20
43999;DHT22;51319;52.162;5.302;2022-08-01T23:05:12;15.00;84.30
43999;DHT22;51319;52.162;5.302;2022-08-01T23:07:45;15.00;84.30
43999;DHT22;51319;52.162;5.302;2022-08-01T23:10:14;15.00;84.30
43999;DHT22;51319;52.162;5.302;2022-08-01T23:12:41;15.00;84.30
43999;DHT22;51319;52.162;5.302;2022-08-01T23:15:08;15.10;84.20
43999;DHT22;51319;52.162;5.302;2022-08-01T23:17:36;15.10;84.30
43999;DHT22;51319;52.162;5.302;2022-08-01T23:20:05;15.10;84.70
43999;DHT22;51319;52.162;5.302;2022-08-01T23:22:34;15.10;84.00
43999;DHT22;51319;52.162;5.302;2022-08-01T23:25:04;15.10;83.50
43999;DHT22;51319;52.162;5.302;2022-08-01T23:27:41;15.10;83.30
43999;DHT22;51319;52.162;5.302;2022-08-01T23:30:30;15.10;83.20
43999;DHT22;51319;52.162;5.302;2022-08-01T23:32:57;15.10;83.20
43999;DHT22;51319;52.162;5.302;2022-08-01T23:35:24;15.10;83.30
43999;DHT22;51319;52.162;5.302;2022-08-01T23:37:50;15.00;83.30
43999;DHT22;51319;52.162;5.302;2022-08-01T23:40:17;15.00;83.60
43999;DHT22;51319;52.162;5.302;2022-08-01T23:42:44;15.00;83.80
43999;DHT22;51319;52.162;5.302;2022-08-01T23:45:10;14.90;83.90
43999;DHT22;51319;52.162;5.302;2022-08-01T23:47:36;14.90;84.20
43999;DHT22;51319;52.162;5.302;2022-08-01T23:50:03;15.00;84.60
43999;DHT22;51319;52.162;5.302;2022-08-01T23:52:30;15.10;84.60
43999;DHT22;51319;52.162;5.302;2022-08-01T23:55:00;15.10;84.50
43999;DHT22;51319;52.162;5.302;2022-08-01T23:57:40;15.10;84.20
